sensor_id;sensor_type;location;lat;lon;timestamp;pressure;altitude;pressure_sealevel;temperature;humidity
39177;BME280;24904;52.208;21.192;2023-10-09T00:03:10;101285.86;;;5.98;58.05
39177;BME280;24904;52.208;21.192;2023-10-09T00:08:17;101280.18;;;5.97;57.98
39177;BME280;24904;52.208;21.192;2023-10-09T00:13:26;101269.52;;;5.95;58.10
39177;BME280;24904;52.208;21.192;2023-10-09T00:18:34;101266.79;;;5.88;58.58
39177;BME280;24904;52.208;21.192;2023-10-09T00:23:39;101260.06;;;5.81;58.65
39177;BME280;24904;52.208;21.192;2023-10-09T00:28:45;101264.93;;;5.75;59.00
39177;BME280;24904;52.208;21.192;2023-10-09T00:33:51;101260.45;;;5.65;59.11
39177;BME280;24904;52.208;21.192;2023-10-09T00:38:58;101251.31;;;5.58;59.17
39177;BME280;24904;52.208;21.192;2023-10-09T00:44:14;101246.98;;;5.55;59.79
39177;BME280;24904;52.208;21.192;2023-10-09T00:49:20;101236.70;;;5.51;59.92
39177;BME280;24904;52.208;21.192;2023-10-09T00:54:27;101222.43;;;5.46;59.97
39177;BME280;24904;52.208;21.192;2023-10-09T00:59:39;101217.83;;;5.38;60.11
39177;BME280;24904;52.208;21.192;2023-10-09T01:04:46;101219.80;;;5.30;60.53
39177;BME280;24904;52.208;21.192;2023-10-09T01:09:51;101215.70;;;5.29;60.91
39177;BME280;24904;52.208;21.192;2023-10-09T01:14:59;101213.34;;;5.35;61.10
39177;BME280;24904;52.208;21.192;2023-10-09T01:20:05;101215.72;;;5.36;60.96
39177;BME280;24904;52.208;21.192;2023-10-09T01:25:20;101217.02;;;5.41;60.83
39177;BME280;24904;52.208;21.192;2023-10-09T01:30:26;101204.81;;;5.38;60.97
39177;BME280;24904;52.208;21.192;2023-10-09T01:35:31;101183.14;;;5.30;61.16
39177;BME280;24904;52.208;21.192;2023-10-09T01:40:37;101187.09;;;5.26;61.67
39177;BME280;24904;52.208;21.192;2023-10-09T01:45:42;101187.10;;;5.08;61.71
39177;BME280;24904;52.208;21.192;2023-10-09T01:50:50;101182.52;;;4.94;61.99
39177;BME280;24904;52.208;21.192;2023-10-09T01:55:55;101166.46;;;4.85;62.21
39177;BME280;24904;52.208;21.192;2023-10-09T02:01:03;101174.20;;;4.73;62.64
39177;BME280;24904;52.208;21.192;2023-10-09T02:06:10;101167.55;;;4.70;63.19
39177;BME280;24904;52.208;21.192;2023-10-09T02:11:36;101165.48;;;4.74;63.23
39177;BME280;24904;52.208;21.192;2023-10-09T02:16:41;101180.45;;;4.75;63.49
39177;BME280;24904;52.208;21.192;2023-10-09T02:21:46;101175.70;;;4.85;63.37
39177;BME280;24904;52.208;21.192;2023-10-09T02:26:52;101170.19;;;4.97;63.14
39177;BME280;24904;52.208;21.192;2023-10-09T02:32:11;101171.84;;;5.07;62.75
39177;BME280;24904;52.208;21.192;2023-10-09T02:37:30;101166.63;;;5.12;62.90
39177;BME280;24904;52.208;21.192;2023-10-09T02:42:35;101157.00;;;5.18;62.67
39177;BME280;24904;52.208;21.192;2023-10-09T02:47:46;101157.94;;;5.20;62.53
39177;BME280;24904;52.208;21.192;2023-10-09T02:52:51;101161.90;;;5.23;62.71
39177;BME280;24904;52.208;21.192;2023-10-09T02:58:03;101155.94;;;5.23;62.37
39177;BME280;24904;52.208;21.192;2023-10-09T03:03:11;101160.06;;;5.22;62.56
39177;BME280;24904;52.208;21.192;2023-10-09T03:08:20;101150.14;;;5.23;62.35
39177;BME280;24904;52.208;21.192;2023-10-09T03:13:25;101151.42;;;5.23;62.51
39177;BME280;24904;52.208;21.192;2023-10-09T03:18:33;101149.46;;;5.23;62.24
39177;BME280;24904;52.208;21.192;2023-10-09T03:23:38;101149.36;;;5.21;62.67
39177;BME280;24904;52.208;21.192;2023-10-09T03:28:43;101137.08;;;5.23;62.65
39177;BME280;24904;52.208;21.192;2023-10-09T03:33:48;101134.06;;;5.23;62.40
39177;BME280;24904;52.208;21.192;2023-10-09T03:38:54;101143.45;;;5.22;62.50
39177;BME280;24904;52.208;21.192;2023-10-09T03:44:01;101150.40;;;5.21;62.66
39177;BME280;24904;52.208;21.192;2023-10-09T03:49:06;101147.36;;;5.20;62.69
39177;BME280;24904;52.208;21.192;2023-10-09T03:54:14;101142.30;;;5.17;62.71
39177;BME280;24904;52.208;21.192;2023-10-09T03:59:23;101136.29;;;5.17;62.69
39177;BME280;24904;52.208;21.192;2023-10-09T04:04:34;101135.75;;;5.23;62.41
39177;BME280;24904;52.208;21.192;2023-10-09T04:16:33;101136.79;;;5.32;62.56
39177;BME280;24904;52.208;21.192;2023-10-09T04:21:53;101133.54;;;5.29;62.75
39177;BME280;24904;52.208;21.192;2023-10-09T04:27:00;101125.51;;;5.25;62.60
39177;BME280;24904;52.208;21.192;2023-10-09T04:32:05;101125.92;;;5.22;62.82
39177;BME280;24904;52.208;21.192;2023-10-09T04:37:10;101125.34;;;5.19;63.06
39177;BME280;24904;52.208;21.192;2023-10-09T04:42:26;101113.43;;;5.21;63.01
39177;BME280;24904;52.208;21.192;2023-10-09T04:47:38;101097.64;;;5.21;63.42
39177;BME280;24904;52.208;21.192;2023-10-09T04:52:51;101089.08;;;5.26;63.52
39177;BME280;24904;52.208;21.192;2023-10-09T04:57:54;101091.09;;;5.29;63.40
39177;BME280;24904;52.208;21.192;2023-10-09T05:03:05;101090.81;;;5.32;63.27
39177;BME280;24904;52.208;21.192;2023-10-09T05:08:14;101088.17;;;5.29;63.10
39177;BME280;24904;52.208;21.192;2023-10-09T05:13:21;101076.58;;;5.31;63.43
39177;BME280;24904;52.208;21.192;2023-10-09T05:18:44;101058.48;;;5.27;63.80
39177;BME280;24904;52.208;21.192;2023-10-09T05:23:58;101053.84;;;5.26;63.66
39177;BME280;24904;52.208;21.192;2023-10-09T05:29:20;101037.80;;;5.23;63.62
39177;BME280;24904;52.208;21.192;2023-10-09T05:34:36;101042.50;;;5.18;64.07
39177;BME280;24904;52.208;21.192;2023-10-09T05:47:35;101047.63;;;5.28;64.21
39177;BME280;24904;52.208;21.192;2023-10-09T05:52:39;101041.24;;;5.30;64.58
39177;BME280;24904;52.208;21.192;2023-10-09T05:58:07;101045.21;;;5.37;64.54
39177;BME280;24904;52.208;21.192;2023-10-09T06:03:28;101039.00;;;5.42;64.51
39177;BME280;24904;52.208;21.192;2023-10-09T06:08:50;101020.08;;;5.41;64.48
39177;BME280;24904;52.208;21.192;2023-10-09T06:14:12;101016.55;;;5.36;64.40
39177;BME280;24904;52.208;21.192;2023-10-09T06:19:15;101020.35;;;5.34;64.60
39177;BME280;24904;52.208;21.192;2023-10-09T06:24:29;101018.80;;;5.33;64.55
39177;BME280;24904;52.208;21.192;2023-10-09T06:29:43;101031.33;;;5.39;65.00
39177;BME280;24904;52.208;21.192;2023-10-09T06:35:15;101036.48;;;5.45;65.32
39177;BME280;24904;52.208;21.192;2023-10-09T06:40:19;101037.52;;;5.50;65.19
39177;BME280;24904;52.208;21.192;2023-10-09T06:45:40;101040.20;;;5.53;65.15
39177;BME280;24904;52.208;21.192;2023-10-09T06:50:56;101037.36;;;5.56;64.68
39177;BME280;24904;52.208;21.192;2023-10-09T06:56:06;101038.42;;;5.59;64.82
39177;BME280;24904;52.208;21.192;2023-10-09T07:01:10;101037.10;;;5.67;64.85
39177;BME280;24904;52.208;21.192;2023-10-09T07:06:41;101036.74;;;5.79;64.62
39177;BME280;24904;52.208;21.192;2023-10-09T07:12:01;101038.45;;;5.84;64.71
39177;BME280;24904;52.208;21.192;2023-10-09T07:17:07;101038.09;;;5.92;64.71
39177;BME280;24904;52.208;21.192;2023-10-09T07:22:18;101037.83;;;5.99;64.28
39177;BME280;24904;52.208;21.192;2023-10-09T07:27:32;101039.40;;;6.11;64.57
39177;BME280;24904;52.208;21.192;2023-10-09T07:32:46;101041.86;;;6.28;64.34
39177;BME280;24904;52.208;21.192;2023-10-09T07:37:50;101037.49;;;6.44;64.09
39177;BME280;24904;52.208;21.192;2023-10-09T07:42:53;101037.43;;;6.63;63.95
39177;BME280;24904;52.208;21.192;2023-10-09T07:48:07;101032.20;;;6.74;63.53
39177;BME280;24904;52.208;21.192;2023-10-09T07:53:17;101035.95;;;6.91;63.46
39177;BME280;24904;52.208;21.192;2023-10-09T07:58:29;101039.69;;;7.07;63.34
39177;BME280;24904;52.208;21.192;2023-10-09T08:03:33;101033.66;;;7.20;62.89
39177;BME280;24904;52.208;21.192;2023-10-09T08:08:37;101023.95;;;7.35;62.60
39177;BME280;24904;52.208;21.192;2023-10-09T08:14:03;101012.33;;;7.58;62.86
39177;BME280;24904;52.208;21.192;2023-10-09T08:19:23;101003.92;;;7.81;62.29
39177;BME280;24904;52.208;21.192;2023-10-09T08:24:35;101005.34;;;7.93;61.31
39177;BME280;24904;52.208;21.192;2023-10-09T08:29:43;100994.88;;;8.06;61.17
39177;BME280;24904;52.208;21.192;2023-10-09T08:34:49;100999.69;;;8.13;60.82
39177;BME280;24904;52.208;21.192;2023-10-09T08:39:56;100998.14;;;8.17;60.56
39177;BME280;24904;52.208;21.192;2023-10-09T08:44:59;100999.09;;;8.26;60.44
39177;BME280;24904;52.208;21.192;2023-10-09T08:50:07;100993.66;;;8.40;60.40
39177;BME280;24904;52.208;21.192;2023-10-09T08:55:15;100993.20;;;8.50;60.19
39177;BME280;24904;52.208;21.192;2023-10-09T09:00:19;100995.35;;;8.57;59.85
39177;BME280;24904;52.208;21.192;2023-10-09T09:05:26;100992.88;;;8.69;60.53
39177;BME280;24904;52.208;21.192;2023-10-09T09:10:31;100984.21;;;8.77;59.68
39177;BME280;24904;52.208;21.192;2023-10-09T09:15:37;100975.02;;;8.82;59.83
39177;BME280;24904;52.208;21.192;2023-10-09T09:20:42;100968.02;;;9.04;59.66
39177;BME280;24904;52.208;21.192;2023-10-09T09:25:48;100958.73;;;9.16;58.96
39177;BME280;24904;52.208;21.192;2023-10-09T09:31:08;100945.25;;;9.25;58.86
39177;BME280;24904;52.208;21.192;2023-10-09T09:36:15;100934.58;;;9.33;58.36
39177;BME280;24904;52.208;21.192;2023-10-09T09:41:19;100939.23;;;9.40;58.31
39177;BME280;24904;52.208;21.192;2023-10-09T09:46:27;100932.80;;;9.49;58.11
39177;BME280;24904;52.208;21.192;2023-10-09T09:51:35;100917.04;;;9.59;58.02
39177;BME280;24904;52.208;21.192;2023-10-09T09:56:40;100908.04;;;9.80;57.85
39177;BME280;24904;52.208;21.192;2023-10-09T10:01:44;100895.91;;;10.01;56.89
39177;BME280;24904;52.208;21.192;2023-10-09T10:06:59;100897.64;;;10.20;56.81
39177;BME280;24904;52.208;21.192;2023-10-09T10:12:11;100893.49;;;10.34;56.46
39177;BME280;24904;52.208;21.192;2023-10-09T10:17:16;100885.94;;;10.45;54.42
39177;BME280;24904;52.208;21.192;2023-10-09T10:22:26;100878.05;;;10.51;54.32
39177;BME280;24904;52.208;21.192;2023-10-09T10:27:30;100870.28;;;10.55;54.38
39177;BME280;24904;52.208;21.192;2023-10-09T10:32:55;100860.38;;;10.57;53.92
39177;BME280;24904;52.208;21.192;2023-10-09T10:37:59;100845.33;;;10.54;53.52
39177;BME280;24904;52.208;21.192;2023-10-09T10:43:17;100840.39;;;10.55;53.77
39177;BME280;24904;52.208;21.192;2023-10-09T10:48:35;100834.92;;;10.52;53.83
39177;BME280;24904;52.208;21.192;2023-10-09T10:53:51;100828.91;;;10.50;53.21
39177;BME280;24904;52.208;21.192;2023-10-09T10:58:59;100827.20;;;10.58;53.58
39177;BME280;24904;52.208;21.192;2023-10-09T11:04:14;100822.73;;;10.54;52.56
39177;BME280;24904;52.208;21.192;2023-10-09T11:09:27;100823.77;;;10.50;53.54
39177;BME280;24904;52.208;21.192;2023-10-09T11:14:45;100819.25;;;10.56;53.73
39177;BME280;24904;52.208;21.192;2023-10-09T11:20:08;100809.17;;;10.55;53.24
39177;BME280;24904;52.208;21.192;2023-10-09T11:25:34;100801.72;;;10.58;52.90
39177;BME280;24904;52.208;21.192;2023-10-09T11:30:38;100796.21;;;10.58;52.76
39177;BME280;24904;52.208;21.192;2023-10-09T11:35:52;100799.78;;;10.56;52.21
39177;BME280;24904;52.208;21.192;2023-10-09T11:41:12;100791.14;;;10.55;52.06
39177;BME280;24904;52.208;21.192;2023-10-09T11:46:22;100791.83;;;10.54;52.47
39177;BME280;24904;52.208;21.192;2023-10-09T11:51:51;100782.79;;;10.62;52.72
39177;BME280;24904;52.208;21.192;2023-10-09T11:57:27;100779.77;;;10.65;52.49
39177;BME280;24904;52.208;21.192;2023-10-09T12:02:33;100773.92;;;10.71;52.66
39177;BME280;24904;52.208;21.192;2023-10-09T12:07:46;100762.44;;;10.74;52.11
39177;BME280;24904;52.208;21.192;2023-10-09T12:12:49;100762.76;;;10.74;51.71
39177;BME280;24904;52.208;21.192;2023-10-09T12:17:52;100766.90;;;10.73;51.56
39177;BME280;24904;52.208;21.192;2023-10-09T12:22:55;100758.50;;;10.73;51.54
39177;BME280;24904;52.208;21.192;2023-10-09T12:28:00;100755.45;;;10.74;52.14
39177;BME280;24904;52.208;21.192;2023-10-09T12:33:04;100745.60;;;10.77;52.34
39177;BME280;24904;52.208;21.192;2023-10-09T12:38:09;100750.33;;;10.77;52.88
39177;BME280;24904;52.208;21.192;2023-10-09T12:43:12;100754.14;;;10.70;53.03
39177;BME280;24904;52.208;21.192;2023-10-09T12:48:19;100759.37;;;10.69;53.61
39177;BME280;24904;52.208;21.192;2023-10-09T12:53:22;100762.72;;;10.63;53.85
39177;BME280;24904;52.208;21.192;2023-10-09T12:58:25;100759.24;;;10.61;54.50
39177;BME280;24904;52.208;21.192;2023-10-09T13:03:29;100761.49;;;10.56;54.96
39177;BME280;24904;52.208;21.192;2023-10-09T13:08:35;100755.27;;;10.55;55.31
39177;BME280;24904;52.208;21.192;2023-10-09T13:13:39;100743.31;;;10.48;55.91
39177;BME280;24904;52.208;21.192;2023-10-09T13:18:45;100743.89;;;10.50;56.40
39177;BME280;24904;52.208;21.192;2023-10-09T13:30:15;100736.13;;;10.55;56.99
39177;BME280;24904;52.208;21.192;2023-10-09T13:35:25;100725.48;;;10.46;57.08
39177;BME280;24904;52.208;21.192;2023-10-09T13:40:41;100723.95;;;10.44;57.02
39177;BME280;24904;52.208;21.192;2023-10-09T13:45:46;100718.48;;;10.36;57.01
39177;BME280;24904;52.208;21.192;2023-10-09T13:50:59;100711.33;;;10.30;57.48
39177;BME280;24904;52.208;21.192;2023-10-09T13:56:13;100703.73;;;10.26;57.79
39177;BME280;24904;52.208;21.192;2023-10-09T14:01:21;100700.63;;;10.20;57.81
39177;BME280;24904;52.208;21.192;2023-10-09T14:06:36;100697.62;;;10.11;58.22
39177;BME280;24904;52.208;21.192;2023-10-09T14:11:41;100696.77;;;10.07;58.70
39177;BME280;24904;52.208;21.192;2023-10-09T14:16:47;100696.73;;;10.01;59.18
39177;BME280;24904;52.208;21.192;2023-10-09T14:22:00;100704.01;;;9.97;59.56
39177;BME280;24904;52.208;21.192;2023-10-09T14:27:08;100708.62;;;9.91;59.54
39177;BME280;24904;52.208;21.192;2023-10-09T14:32:19;100708.86;;;9.92;60.01
39177;BME280;24904;52.208;21.192;2023-10-09T14:37:24;100706.59;;;9.97;60.16
39177;BME280;24904;52.208;21.192;2023-10-09T14:42:29;100708.09;;;10.00;60.28
39177;BME280;24904;52.208;21.192;2023-10-09T14:47:34;100707.69;;;10.00;60.57
39177;BME280;24904;52.208;21.192;2023-10-09T14:52:41;100699.33;;;9.98;60.64
39177;BME280;24904;52.208;21.192;2023-10-09T14:57:46;100702.41;;;9.95;60.79
39177;BME280;24904;52.208;21.192;2023-10-09T15:02:53;100704.02;;;9.88;60.99
39177;BME280;24904;52.208;21.192;2023-10-09T15:07:58;100704.86;;;9.84;60.99
39177;BME280;24904;52.208;21.192;2023-10-09T15:16:12;100713.54;;;9.78;61.19
39177;BME280;24904;52.208;21.192;2023-10-09T15:21:16;100715.05;;;9.76;61.70
39177;BME280;24904;52.208;21.192;2023-10-09T15:26:19;100713.05;;;9.72;61.92
39177;BME280;24904;52.208;21.192;2023-10-09T15:31:23;100711.93;;;9.65;61.98
39177;BME280;24904;52.208;21.192;2023-10-09T15:36:26;100721.70;;;9.60;62.28
39177;BME280;24904;52.208;21.192;2023-10-09T15:41:31;100726.85;;;9.51;62.63
39177;BME280;24904;52.208;21.192;2023-10-09T15:46:34;100731.96;;;9.41;62.83
39177;BME280;24904;52.208;21.192;2023-10-09T15:51:37;100739.02;;;9.34;63.14
39177;BME280;24904;52.208;21.192;2023-10-09T15:56:40;100747.34;;;9.28;63.61
39177;BME280;24904;52.208;21.192;2023-10-09T16:01:44;100752.62;;;9.19;63.95
39177;BME280;24904;52.208;21.192;2023-10-09T16:06:47;100759.29;;;9.10;64.09
39177;BME280;24904;52.208;21.192;2023-10-09T16:11:50;100759.20;;;9.05;64.32
39177;BME280;24904;52.208;21.192;2023-10-09T16:16:53;100756.40;;;9.00;64.76
39177;BME280;24904;52.208;21.192;2023-10-09T16:21:57;100748.65;;;8.93;65.00
39177;BME280;24904;52.208;21.192;2023-10-09T16:27:02;100757.46;;;8.86;65.21
39177;BME280;24904;52.208;21.192;2023-10-09T16:32:06;100765.62;;;8.80;65.47
39177;BME280;24904;52.208;21.192;2023-10-09T16:37:10;100782.20;;;8.71;65.67
39177;BME280;24904;52.208;21.192;2023-10-09T16:42:14;100783.56;;;8.62;66.15
39177;BME280;24904;52.208;21.192;2023-10-09T16:47:17;100795.79;;;8.48;66.21
39177;BME280;24904;52.208;21.192;2023-10-09T16:52:20;100797.09;;;8.39;67.12
39177;BME280;24904;52.208;21.192;2023-10-09T16:57:25;100796.11;;;8.34;66.86
39177;BME280;24904;52.208;21.192;2023-10-09T17:02:28;100795.56;;;8.24;67.02
39177;BME280;24904;52.208;21.192;2023-10-09T17:07:33;100800.45;;;8.08;67.10
39177;BME280;24904;52.208;21.192;2023-10-09T17:12:37;100798.77;;;7.93;67.34
39177;BME280;24904;52.208;21.192;2023-10-09T17:17:43;100795.86;;;7.78;67.35
39177;BME280;24904;52.208;21.192;2023-10-09T17:22:48;100799.13;;;7.64;67.86
39177;BME280;24904;52.208;21.192;2023-10-09T17:27:51;100803.34;;;7.52;67.92
39177;BME280;24904;52.208;21.192;2023-10-09T17:32:56;100814.86;;;7.33;68.19
39177;BME280;24904;52.208;21.192;2023-10-09T17:38:00;100817.92;;;7.21;68.44
39177;BME280;24904;52.208;21.192;2023-10-09T17:43:03;100807.13;;;7.13;68.54
39177;BME280;24904;52.208;21.192;2023-10-09T17:48:07;100805.48;;;7.00;68.54
39177;BME280;24904;52.208;21.192;2023-10-09T17:53:11;100810.48;;;6.81;68.80
39177;BME280;24904;52.208;21.192;2023-10-09T17:58:14;100817.05;;;6.71;69.10
39177;BME280;24904;52.208;21.192;2023-10-09T18:03:17;100817.33;;;6.67;69.21
39177;BME280;24904;52.208;21.192;2023-10-09T18:08:22;100817.77;;;6.53;69.09
39177;BME280;24904;52.208;21.192;2023-10-09T18:13:27;100821.06;;;6.44;69.41
39177;BME280;24904;52.208;21.192;2023-10-09T18:18:30;100819.70;;;6.34;69.35
39177;BME280;24904;52.208;21.192;2023-10-09T18:23:34;100830.08;;;6.23;69.65
39177;BME280;24904;52.208;21.192;2023-10-09T18:28:38;100835.77;;;6.13;69.56
39177;BME280;24904;52.208;21.192;2023-10-09T18:33:41;100836.73;;;6.04;69.95
39177;BME280;24904;52.208;21.192;2023-10-09T18:38:46;100843.82;;;6.01;70.27
39177;BME280;24904;52.208;21.192;2023-10-09T18:43:52;100842.34;;;6.02;70.66
39177;BME280;24904;52.208;21.192;2023-10-09T18:48:57;100844.23;;;6.02;70.61
39177;BME280;24904;52.208;21.192;2023-10-09T18:54:04;100841.91;;;6.03;70.97
39177;BME280;24904;52.208;21.192;2023-10-09T18:59:08;100843.66;;;6.01;70.77
39177;BME280;24904;52.208;21.192;2023-10-09T19:04:11;100837.70;;;5.98;71.03
39177;BME280;24904;52.208;21.192;2023-10-09T19:09:15;100845.08;;;5.91;71.08
39177;BME280;24904;52.208;21.192;2023-10-09T19:14:23;100841.20;;;5.84;71.25
39177;BME280;24904;52.208;21.192;2023-10-09T19:19:27;100835.66;;;5.80;70.99
39177;BME280;24904;52.208;21.192;2023-10-09T19:24:31;100834.16;;;5.73;70.73
39177;BME280;24904;52.208;21.192;2023-10-09T19:29:34;100827.27;;;5.68;70.69
39177;BME280;24904;52.208;21.192;2023-10-09T19:34:37;100836.90;;;5.61;70.74
39177;BME280;24904;52.208;21.192;2023-10-09T19:39:40;100845.64;;;5.49;70.87
39177;BME280;24904;52.208;21.192;2023-10-09T19:44:44;100851.20;;;5.45;70.99
39177;BME280;24904;52.208;21.192;2023-10-09T19:49:47;100846.85;;;5.45;71.11
39177;BME280;24904;52.208;21.192;2023-10-09T19:54:54;100851.31;;;5.39;70.65
39177;BME280;24904;52.208;21.192;2023-10-09T19:59:58;100857.27;;;5.30;70.81
39177;BME280;24904;52.208;21.192;2023-10-09T20:05:01;100858.69;;;5.25;70.50
39177;BME280;24904;52.208;21.192;2023-10-09T20:10:06;100860.29;;;5.09;70.74
39177;BME280;24904;52.208;21.192;2023-10-09T20:15:10;100859.27;;;5.05;70.77
39177;BME280;24904;52.208;21.192;2023-10-09T20:20:15;100854.75;;;5.05;70.94
39177;BME280;24904;52.208;21.192;2023-10-09T20:25:24;100855.02;;;5.04;71.02
39177;BME280;24904;52.208;21.192;2023-10-09T20:30:33;100859.52;;;4.96;71.02
39177;BME280;24904;52.208;21.192;2023-10-09T20:35:37;100864.16;;;4.82;70.92
39177;BME280;24904;52.208;21.192;2023-10-09T20:40:42;100853.58;;;4.80;71.15
39177;BME280;24904;52.208;21.192;2023-10-09T20:45:46;100867.16;;;4.74;71.01
39177;BME280;24904;52.208;21.192;2023-10-09T20:50:49;100868.85;;;4.68;70.93
39177;BME280;24904;52.208;21.192;2023-10-09T20:55:52;100860.21;;;4.59;71.16
39177;BME280;24904;52.208;21.192;2023-10-09T21:00:57;100868.44;;;4.61;71.07
39177;BME280;24904;52.208;21.192;2023-10-09T21:06:04;100873.73;;;4.59;70.88
39177;BME280;24904;52.208;21.192;2023-10-09T21:11:07;100878.48;;;4.46;70.69
39177;BME280;24904;52.208;21.192;2023-10-09T21:16:11;100886.27;;;4.38;70.84
39177;BME280;24904;52.208;21.192;2023-10-09T21:21:16;100890.46;;;4.29;71.18
39177;BME280;24904;52.208;21.192;2023-10-09T21:26:20;100890.30;;;4.27;70.77
39177;BME280;24904;52.208;21.192;2023-10-09T21:31:24;100899.19;;;4.21;71.13
39177;BME280;24904;52.208;21.192;2023-10-09T21:36:27;100903.89;;;4.17;71.22
39177;BME280;24904;52.208;21.192;2023-10-09T21:41:30;100902.45;;;4.12;71.08
39177;BME280;24904;52.208;21.192;2023-10-09T21:46:33;100901.34;;;4.12;71.31
39177;BME280;24904;52.208;21.192;2023-10-09T21:51:37;100901.88;;;4.10;71.20
39177;BME280;24904;52.208;21.192;2023-10-09T21:56:40;100898.27;;;4.09;71.76
39177;BME280;24904;52.208;21.192;2023-10-09T22:01:43;100896.27;;;4.11;71.65
39177;BME280;24904;52.208;21.192;2023-10-09T22:06:51;100898.59;;;4.11;71.84
39177;BME280;24904;52.208;21.192;2023-10-09T22:11:54;100897.82;;;4.09;71.94
39177;BME280;24904;52.208;21.192;2023-10-09T22:16:57;100892.39;;;4.11;72.10
39177;BME280;24904;52.208;21.192;2023-10-09T22:22:00;100888.86;;;4.14;72.02
39177;BME280;24904;52.208;21.192;2023-10-09T22:27:05;100896.25;;;4.13;72.49
39177;BME280;24904;52.208;21.192;2023-10-09T22:32:13;100892.06;;;4.13;72.20
39177;BME280;24904;52.208;21.192;2023-10-09T22:37:18;100890.17;;;4.12;72.35
39177;BME280;24904;52.208;21.192;2023-10-09T22:42:22;100896.65;;;4.05;72.31
39177;BME280;24904;52.208;21.192;2023-10-09T22:47:25;100903.97;;;4.03;72.17
39177;BME280;24904;52.208;21.192;2023-10-09T22:52:35;100905.33;;;3.97;71.67
39177;BME280;24904;52.208;21.192;2023-10-09T22:57:38;100907.24;;;3.92;71.94
39177;BME280;24904;52.208;21.192;2023-10-09T23:02:41;100913.91;;;3.95;72.27
39177;BME280;24904;52.208;21.192;2023-10-09T23:07:45;100915.52;;;3.98;72.47
39177;BME280;24904;52.208;21.192;2023-10-09T23:13:01;100926.93;;;3.99;72.77
39177;BME280;24904;52.208;21.192;2023-10-09T23:18:17;100933.92;;;4.07;72.57
39177;BME280;24904;52.208;21.192;2023-10-09T23:23:40;100935.23;;;4.09;72.89
39177;BME280;24904;52.208;21.192;2023-10-09T23:28:44;100931.32;;;4.14;72.92
39177;BME280;24904;52.208;21.192;2023-10-09T23:33:54;100937.61;;;4.17;73.21
39177;BME280;24904;52.208;21.192;2023-10-09T23:38:58;100942.33;;;4.20;73.17
39177;BME280;24904;52.208;21.192;2023-10-09T23:44:14;100945.12;;;4.24;73.46
39177;BME280;24904;52.208;21.192;2023-10-09T23:49:23;100950.76;;;4.22;73.33
39177;BME280;24904;52.208;21.192;2023-10-09T23:54:26;100951.77;;;4.25;73.59
39177;BME280;24904;52.208;21.192;2023-10-09T23:59:30;100953.52;;;4.29;73.44
